createdAt,value
2023-03-05T00:01:35.801Z,1.70
2023-03-05T00:04:04.194Z,1.60
2023-03-05T00:06:32.844Z,1.50
2023-03-05T00:09:02.241Z,1.73
2023-03-05T00:11:36.654Z,1.80
2023-03-05T00:14:06.792Z,1.73
2023-03-05T00:16:33.764Z,1.73
2023-03-05T00:19:01.405Z,1.63
2023-03-05T00:21:33.822Z,1.97
2023-03-05T00:24:01.698Z,1.80
2023-03-05T00:26:29.327Z,2.07
2023-03-05T00:28:57.927Z,2.20
2023-03-05T00:31:30.272Z,1.87
2023-03-05T00:34:00.823Z,1.90
2023-03-05T00:36:29.194Z,1.80
2023-03-05T00:38:56.482Z,1.30
2023-03-05T00:41:23.286Z,1.63
2023-03-05T00:43:52.684Z,1.70
2023-03-05T00:46:23.462Z,1.97
2023-03-05T00:48:50.887Z,1.70
2023-03-05T00:51:18.526Z,1.80
2023-03-05T00:53:45.589Z,1.57
2023-03-05T00:56:12.707Z,1.80
2023-03-05T00:58:42.759Z,1.40
2023-03-05T01:01:09.552Z,1.77
2023-03-05T01:03:36.462Z,2.40
2023-03-05T01:06:11.531Z,1.80
2023-03-05T01:08:39.096Z,2.00
2023-03-05T01:11:06.847Z,1.90
2023-03-05T01:13:33.653Z,2.20
2023-03-05T01:16:01.452Z,2.23
2023-03-05T01:18:30.861Z,2.30
2023-03-05T01:20:58.003Z,2.50
2023-03-05T01:23:28.152Z,2.20
2023-03-05T01:25:58.379Z,2.70
2023-03-05T01:28:25.941Z,2.43
2023-03-05T01:30:53.222Z,2.67
2023-03-05T01:33:23.425Z,2.33
2023-03-05T01:35:50.670Z,2.70
2023-03-05T01:38:28.736Z,2.43
2023-03-05T01:40:55.821Z,2.57
2023-03-05T01:43:28.245Z,2.60
2023-03-05T01:46:13.042Z,3.17
2023-03-05T01:48:40.946Z,3.07
2023-03-05T01:51:07.714Z,2.60
2023-03-05T01:53:34.740Z,2.90
2023-03-05T01:56:02.226Z,2.70
2023-03-05T01:58:28.950Z,2.63
2023-03-05T02:00:56.973Z,2.73
2023-03-05T02:03:24.381Z,2.60
2023-03-05T02:05:51.160Z,2.87
2023-03-05T02:08:21.150Z,3.33
2023-03-05T02:10:50.058Z,2.50
2023-03-05T02:13:25.529Z,2.93
2023-03-05T02:15:53.865Z,3.00
2023-03-05T02:18:21.380Z,2.93
2023-03-05T02:20:54.103Z,3.20
2023-03-05T02:23:22.656Z,2.90
2023-03-05T02:25:49.544Z,3.10
2023-03-05T02:28:24.377Z,2.87
2023-03-05T02:30:51.230Z,3.20
2023-03-05T02:33:19.090Z,2.80
2023-03-05T02:35:46.587Z,3.27
2023-03-05T02:38:15.244Z,3.40
2023-03-05T02:40:42.494Z,2.73
2023-03-05T02:43:10.033Z,3.30
2023-03-05T02:45:37.647Z,3.53
2023-03-05T02:48:04.686Z,3.07
2023-03-05T02:50:32.172Z,2.70
2023-03-05T02:52:59.066Z,3.37
2023-03-05T02:55:25.940Z,3.53
2023-03-05T02:57:52.886Z,3.73
2023-03-05T03:00:20.053Z,3.60
2023-03-05T03:02:46.779Z,3.37
2023-03-05T03:05:13.541Z,3.63
2023-03-05T03:07:40.185Z,3.70
2023-03-05T03:10:07.517Z,3.30
2023-03-05T03:12:41.720Z,3.40
2023-03-05T03:15:09.450Z,3.80
2023-03-05T03:17:36.843Z,3.53
2023-03-05T03:20:05.795Z,4.20
2023-03-05T03:22:32.587Z,3.67
2023-03-05T03:25:00.858Z,3.93
2023-03-05T03:27:27.700Z,3.73
2023-03-05T03:29:54.379Z,3.63
2023-03-05T03:32:21.416Z,3.80
2023-03-05T03:34:48.328Z,4.60
2023-03-05T03:37:15.012Z,4.13
2023-03-05T03:39:41.663Z,4.10
2023-03-05T03:42:08.430Z,4.43
2023-03-05T03:44:35.235Z,4.73
2023-03-05T03:47:02.099Z,3.83
2023-03-05T03:49:28.770Z,4.43
2023-03-05T03:51:55.657Z,4.43
2023-03-05T03:54:22.615Z,4.67
2023-03-05T03:56:49.331Z,4.23
2023-03-05T03:59:16.426Z,3.80
2023-03-05T04:01:43.834Z,4.03
2023-03-05T04:04:12.556Z,4.10
2023-03-05T04:06:39.753Z,4.33
2023-03-05T04:09:08.299Z,5.07
2023-03-05T04:11:36.588Z,3.97
2023-03-05T04:14:04.220Z,4.20
2023-03-05T04:16:31.117Z,4.20
2023-03-05T04:18:57.855Z,3.60
2023-03-05T04:21:24.600Z,3.87
2023-03-05T04:23:51.258Z,3.80
2023-03-05T04:26:17.957Z,3.80
2023-03-05T04:28:48.298Z,3.27
2023-03-05T04:31:15.135Z,3.70
2023-03-05T04:33:41.859Z,3.90
2023-03-05T04:36:08.913Z,3.37
2023-03-05T04:38:35.637Z,3.60
2023-03-05T04:41:02.391Z,3.23
2023-03-05T04:43:29.101Z,3.07
2023-03-05T04:45:55.880Z,3.20
2023-03-05T04:48:22.858Z,3.63
2023-03-05T04:50:49.576Z,2.70
2023-03-05T04:53:16.506Z,3.00
2023-03-05T04:55:44.021Z,3.37
2023-03-05T04:58:10.911Z,3.33
2023-03-05T05:00:37.882Z,3.37
2023-03-05T05:03:04.657Z,2.73
2023-03-05T05:05:31.468Z,3.87
2023-03-05T05:07:58.935Z,2.50
2023-03-05T05:10:26.489Z,3.47
2023-03-05T05:12:53.505Z,3.20
2023-03-05T05:15:20.766Z,3.33
2023-03-05T05:17:47.491Z,2.70
2023-03-05T05:20:15.839Z,2.97
2023-03-05T05:22:43.171Z,3.20
2023-03-05T05:25:11.219Z,3.20
2023-03-05T05:27:39.387Z,2.80
2023-03-05T05:30:07.650Z,2.77
2023-03-05T05:32:34.582Z,2.70
2023-03-05T05:35:01.422Z,2.57
2023-03-05T05:37:28.286Z,2.93
2023-03-05T05:39:55.000Z,2.50
2023-03-05T05:42:24.108Z,3.17
2023-03-05T05:44:50.781Z,2.60
2023-03-05T05:47:18.724Z,3.00
2023-03-05T05:49:45.555Z,3.93
2023-03-05T05:52:13.285Z,2.97
2023-03-05T05:54:40.186Z,3.07
2023-03-05T05:57:07.546Z,2.90
2023-03-05T05:59:34.387Z,3.00
2023-03-05T06:02:01.132Z,2.77
2023-03-05T06:04:28.663Z,3.30
2023-03-05T06:06:55.578Z,3.37
2023-03-05T06:09:22.378Z,2.43
2023-03-05T06:11:49.120Z,3.03
2023-03-05T06:14:15.797Z,3.20
2023-03-05T06:16:42.606Z,2.67
2023-03-05T06:19:12.388Z,2.83
2023-03-05T06:21:39.435Z,2.60
2023-03-05T06:24:06.516Z,2.60
2023-03-05T06:26:33.765Z,3.90
2023-03-05T06:29:01.817Z,3.07
2023-03-05T06:31:29.229Z,3.20
2023-03-05T06:33:57.958Z,4.07
2023-03-05T06:36:25.808Z,3.47
2023-03-05T06:38:53.565Z,3.87
2023-03-05T06:41:22.862Z,3.57
2023-03-05T06:43:49.919Z,3.90
2023-03-05T06:46:25.247Z,3.77
2023-03-05T06:48:52.781Z,3.40
2023-03-05T06:51:27.895Z,3.47
2023-03-05T06:53:55.814Z,3.30
2023-03-05T06:56:23.002Z,4.27
2023-03-05T06:58:51.359Z,3.73
2023-03-05T07:01:19.146Z,3.60
2023-03-05T07:03:49.444Z,3.93
2023-03-05T07:06:16.628Z,4.03
2023-03-05T07:08:44.955Z,4.03
2023-03-05T07:11:13.517Z,4.90
2023-03-05T07:13:40.796Z,3.80
2023-03-05T07:16:14.637Z,4.30
2023-03-05T07:18:41.503Z,3.93
2023-03-05T07:21:09.400Z,4.27
2023-03-05T07:23:36.525Z,4.97
2023-03-05T07:26:04.483Z,4.20
2023-03-05T07:28:31.594Z,4.13
2023-03-05T07:31:01.602Z,4.57
2023-03-05T07:33:28.814Z,4.30
2023-03-05T07:35:56.090Z,4.60
2023-03-05T07:38:22.878Z,4.20
2023-03-05T07:40:50.701Z,4.27
2023-03-05T07:43:17.600Z,5.27
2023-03-05T07:45:46.083Z,4.97
2023-03-05T07:48:15.443Z,4.80
2023-03-05T07:50:42.168Z,4.80
2023-03-05T07:53:09.203Z,4.73
2023-03-05T07:55:36.131Z,4.00
2023-03-05T07:58:02.859Z,3.97
2023-03-05T08:00:29.514Z,4.90
2023-03-05T08:02:57.622Z,3.70
2023-03-05T08:05:24.316Z,3.53
2023-03-05T08:07:53.923Z,4.00
2023-03-05T08:10:20.720Z,3.57
2023-03-05T08:12:47.420Z,4.27
2023-03-05T08:15:14.159Z,3.60
2023-03-05T08:17:41.428Z,3.70
2023-03-05T08:20:11.244Z,3.90
2023-03-05T08:22:38.686Z,4.03
2023-03-05T08:25:06.729Z,3.50
2023-03-05T08:27:33.707Z,3.20
2023-03-05T08:30:02.457Z,3.03
2023-03-05T08:32:29.557Z,3.00
2023-03-05T08:34:58.563Z,2.97
2023-03-05T08:37:25.984Z,3.13
2023-03-05T08:39:52.713Z,3.37
2023-03-05T08:42:20.397Z,2.53
2023-03-05T08:44:47.605Z,2.87
2023-03-05T08:47:14.516Z,3.00
2023-03-05T08:49:41.216Z,2.67
2023-03-05T08:52:08.123Z,3.10
2023-03-05T08:54:34.791Z,3.20
2023-03-05T08:57:01.976Z,2.73
2023-03-05T08:59:28.795Z,3.10
2023-03-05T09:01:55.797Z,2.87
2023-03-05T09:04:22.617Z,3.13
2023-03-05T09:06:49.295Z,2.77
2023-03-05T09:09:16.366Z,2.73
2023-03-05T09:11:43.092Z,2.87
2023-03-05T09:14:10.470Z,2.83
2023-03-05T09:16:38.527Z,2.90
2023-03-05T09:19:05.356Z,4.03
2023-03-05T09:21:32.057Z,3.60
2023-03-05T09:24:00.582Z,3.90
2023-03-05T09:26:27.516Z,4.37
2023-03-05T09:28:54.242Z,5.10
2023-03-05T09:31:21.475Z,4.70
2023-03-05T09:33:49.226Z,3.77
2023-03-05T09:36:26.021Z,3.90
2023-03-05T09:38:53.282Z,4.03
2023-03-05T09:41:53.919Z,4.10
2023-03-05T09:44:26.853Z,4.23
2023-03-05T09:47:02.485Z,4.17
2023-03-05T09:49:59.040Z,4.57
2023-03-05T09:52:45.747Z,4.03
2023-03-05T09:55:41.004Z,4.13
2023-03-05T09:58:13.647Z,4.07
2023-03-05T10:00:53.811Z,3.03
2023-03-05T10:03:48.776Z,3.23
2023-03-05T10:06:22.699Z,2.73
2023-03-05T10:09:15.754Z,2.73
2023-03-05T10:11:59.613Z,2.80
2023-03-05T10:14:29.017Z,2.50
2023-03-05T10:16:59.011Z,2.43
2023-03-05T10:19:25.722Z,3.00
2023-03-05T10:22:11.166Z,2.03
2023-03-05T10:24:56.632Z,2.10
2023-03-05T10:27:38.041Z,1.63
2023-03-05T10:30:19.922Z,1.50
2023-03-05T10:33:05.250Z,1.40
2023-03-05T10:35:43.836Z,0.97
2023-03-05T10:38:48.758Z,0.93
2023-03-05T10:41:39.821Z,1.10
2023-03-05T10:44:15.795Z,1.20
2023-03-05T10:46:45.707Z,0.93
2023-03-05T10:49:15.512Z,0.93
2023-03-05T10:51:54.655Z,0.80
2023-03-05T10:54:32.222Z,1.30
2023-03-05T10:57:26.399Z,1.50
2023-03-05T10:59:59.097Z,1.80
2023-03-05T11:02:26.445Z,1.60
2023-03-05T11:04:56.661Z,1.60
2023-03-05T11:07:24.930Z,1.60
2023-03-05T11:10:02.396Z,1.40
2023-03-05T11:12:31.754Z,1.80
2023-03-05T11:15:14.056Z,1.70
2023-03-05T11:17:47.258Z,1.70
2023-03-05T11:20:20.213Z,1.87
2023-03-05T11:23:08.818Z,1.57
2023-03-05T11:26:16.941Z,1.80
2023-03-05T11:28:53.328Z,1.60
2023-03-05T11:31:24.652Z,1.60
2023-03-05T11:34:23.682Z,1.40
2023-03-05T11:36:53.907Z,1.70
2023-03-05T11:39:22.673Z,1.60
2023-03-05T11:41:56.115Z,1.70
2023-03-05T11:44:30.131Z,1.80
2023-03-05T11:47:01.924Z,2.20
2023-03-05T11:49:30.231Z,2.10
2023-03-05T11:52:06.930Z,2.90
2023-03-05T11:54:42.954Z,1.93
2023-03-05T11:57:12.577Z,1.87
2023-03-05T11:59:41.984Z,2.27
2023-03-05T12:02:40.157Z,1.90
2023-03-05T12:05:10.112Z,1.30
2023-03-05T12:07:41.311Z,1.40
2023-03-05T12:10:16.186Z,1.60
2023-03-05T12:13:06.294Z,1.30
2023-03-05T12:15:41.827Z,1.10
2023-03-05T12:18:18.017Z,1.20
2023-03-05T12:21:15.829Z,1.37
2023-03-05T12:23:50.530Z,1.20
2023-03-05T12:26:17.527Z,1.40
2023-03-05T12:28:49.526Z,1.13
2023-03-05T12:31:37.684Z,1.20
2023-03-05T12:34:45.229Z,1.03
2023-03-05T12:37:21.665Z,1.10
2023-03-05T12:39:52.738Z,1.47
2023-03-05T12:42:29.247Z,0.93
2023-03-05T12:45:16.999Z,1.17
2023-03-05T12:47:45.643Z,1.27
2023-03-05T12:50:27.783Z,1.60
2023-03-05T12:52:54.959Z,1.83
2023-03-05T12:55:27.688Z,1.57
2023-03-05T12:58:11.312Z,1.80
2023-03-05T13:00:44.799Z,1.70
2023-03-05T13:03:18.556Z,1.70
2023-03-05T13:05:51.876Z,1.60
2023-03-05T13:08:30.414Z,1.60
2023-03-05T13:11:03.300Z,1.87
2023-03-05T13:13:33.086Z,2.20
2023-03-05T13:16:00.721Z,2.40
2023-03-05T13:18:29.347Z,2.40
2023-03-05T13:21:14.815Z,2.50
2023-03-05T13:23:57.883Z,2.87
2023-03-05T13:26:29.219Z,2.90
2023-03-05T13:29:25.597Z,3.57
2023-03-05T13:32:23.089Z,3.60
2023-03-05T13:34:54.248Z,2.87
2023-03-05T13:37:26.306Z,2.27
2023-03-05T13:40:16.899Z,2.60
2023-03-05T13:42:44.573Z,3.20
2023-03-05T13:45:24.312Z,3.47
2023-03-05T13:47:59.574Z,3.60
2023-03-05T13:50:39.139Z,3.93
2023-03-05T13:53:20.812Z,3.30
2023-03-05T13:55:49.686Z,3.70
2023-03-05T13:58:50.884Z,3.37
2023-03-05T14:01:55.999Z,3.47
2023-03-05T14:04:30.110Z,3.13
2023-03-05T14:07:07.335Z,2.90
2023-03-05T14:09:37.416Z,2.47
2023-03-05T14:12:27.421Z,1.80
2023-03-05T14:14:54.387Z,1.77
2023-03-05T14:17:36.544Z,1.70
2023-03-05T14:20:19.573Z,1.70
2023-03-05T14:22:49.673Z,1.43
2023-03-05T14:25:30.466Z,1.80
2023-03-05T14:27:58.036Z,2.00
2023-03-05T14:30:27.249Z,2.10
2023-03-05T14:33:12.407Z,2.43
2023-03-05T14:35:41.032Z,2.97
2023-03-05T14:38:15.988Z,3.80
2023-03-05T14:40:44.103Z,2.63
2023-03-05T14:43:11.622Z,3.13
2023-03-05T14:45:43.019Z,3.13
2023-03-05T14:48:13.443Z,3.00
2023-03-05T14:50:45.861Z,3.83
2023-03-05T14:53:23.759Z,3.87
2023-03-05T14:55:56.802Z,3.93
2023-03-05T14:58:32.320Z,3.20
2023-03-05T15:01:02.102Z,2.70
2023-03-05T15:03:29.082Z,2.30
2023-03-05T15:05:57.633Z,2.83
2023-03-05T15:08:30.624Z,2.97
2023-03-05T15:10:58.900Z,3.37
2023-03-05T15:13:26.299Z,3.63
2023-03-05T15:15:53.835Z,4.43
2023-03-05T15:18:22.338Z,4.70
2023-03-05T15:20:52.119Z,3.63
2023-03-05T15:23:21.354Z,3.30
2023-03-05T15:25:50.131Z,3.53
2023-03-05T15:28:17.220Z,3.53
2023-03-05T15:30:46.479Z,3.00
2023-03-05T15:33:15.706Z,3.10
2023-03-05T15:35:43.712Z,2.97
2023-03-05T15:38:11.433Z,3.20
2023-03-05T15:40:38.313Z,2.60
2023-03-05T15:43:05.089Z,2.80
2023-03-05T15:45:52.510Z,2.70
2023-03-05T15:48:27.288Z,3.00
2023-03-05T15:50:54.278Z,2.47
2023-03-05T15:53:22.517Z,2.80
2023-03-05T15:55:49.359Z,3.03
2023-03-05T15:58:17.022Z,2.60
2023-03-05T16:00:44.305Z,2.20
2023-03-05T16:03:11.279Z,3.43
2023-03-05T16:05:38.489Z,2.50
2023-03-05T16:08:06.214Z,2.50
2023-03-05T16:10:33.448Z,2.03
2023-03-05T16:13:06.432Z,3.17
2023-03-05T16:15:33.966Z,2.20
2023-03-05T16:18:02.979Z,2.13
2023-03-05T16:20:30.009Z,3.27
2023-03-05T16:22:59.293Z,3.30
2023-03-05T16:25:26.766Z,3.60
2023-03-05T16:27:53.985Z,3.63
2023-03-05T16:30:20.980Z,4.33
2023-03-05T16:32:48.542Z,4.97
2023-03-05T16:35:15.410Z,4.37
2023-03-05T16:37:42.355Z,2.90
2023-03-05T16:40:11.101Z,2.53
2023-03-05T16:42:38.187Z,2.90
2023-03-05T16:45:06.367Z,2.63
2023-03-05T16:47:33.476Z,3.63
2023-03-05T16:50:01.046Z,2.93
2023-03-05T16:52:28.702Z,2.80
2023-03-05T16:54:55.742Z,2.77
2023-03-05T16:57:25.375Z,1.90
2023-03-05T16:59:54.477Z,2.17
2023-03-05T17:02:21.502Z,1.60
2023-03-05T17:04:49.467Z,1.90
2023-03-05T17:07:17.102Z,2.33
2023-03-05T17:09:44.497Z,2.20
2023-03-05T17:12:11.401Z,1.80
2023-03-05T17:14:38.354Z,2.10
2023-03-05T17:17:05.056Z,2.63
2023-03-05T17:19:35.168Z,3.07
2023-03-05T17:22:04.436Z,4.30
2023-03-05T17:24:32.950Z,3.60
2023-03-05T17:27:03.305Z,3.30
2023-03-05T17:29:30.762Z,2.77
2023-03-05T17:31:57.504Z,2.53
2023-03-05T17:34:35.455Z,2.20
2023-03-05T17:37:04.192Z,2.70
2023-03-05T17:39:31.005Z,2.33
2023-03-05T17:41:57.901Z,2.17
2023-03-05T17:44:24.613Z,2.60
2023-03-05T17:46:51.469Z,2.80
2023-03-05T17:49:18.172Z,2.80
2023-03-05T17:51:45.098Z,2.60
2023-03-05T17:54:11.794Z,3.57
2023-03-05T17:56:38.669Z,3.80
2023-03-05T17:59:05.411Z,3.37
2023-03-05T18:01:34.725Z,3.03
2023-03-05T18:04:01.653Z,3.00
2023-03-05T18:06:29.960Z,3.30
2023-03-05T18:08:56.779Z,3.33
2023-03-05T18:11:24.054Z,3.80
2023-03-05T18:13:50.735Z,4.73
2023-03-05T18:16:18.203Z,4.03
2023-03-05T18:18:45.538Z,3.40
2023-03-05T18:21:12.416Z,3.70
2023-03-05T18:23:39.186Z,4.77
2023-03-05T18:26:06.975Z,3.40
2023-03-05T18:28:33.782Z,3.67
2023-03-05T18:31:01.191Z,3.67
2023-03-05T18:33:28.021Z,3.60
2023-03-05T18:35:54.955Z,3.63
2023-03-05T18:38:23.313Z,3.90
2023-03-05T18:40:51.405Z,4.20
2023-03-05T18:43:20.644Z,4.00
2023-03-05T18:45:51.854Z,4.57
2023-03-05T18:48:19.842Z,4.50
2023-03-05T18:50:49.969Z,4.47
2023-03-05T18:53:17.196Z,4.47
2023-03-05T18:55:44.828Z,4.07
2023-03-05T18:58:15.685Z,4.10
2023-03-05T19:00:44.960Z,4.13
2023-03-05T19:03:11.968Z,4.43
2023-03-05T19:05:39.643Z,4.27
2023-03-05T19:08:08.051Z,4.40
2023-03-05T19:10:35.303Z,4.70
2023-03-05T19:13:49.154Z,6.10
2023-03-05T19:16:17.947Z,5.33
2023-03-05T19:19:16.667Z,5.47
2023-03-05T19:21:48.486Z,5.67
2023-03-05T19:24:15.988Z,5.90
2023-03-05T19:26:43.733Z,5.73
2023-03-05T19:29:11.506Z,6.10
2023-03-05T19:31:41.587Z,5.77
2023-03-05T19:34:11.566Z,6.63
2023-03-05T19:36:40.370Z,6.47
2023-03-05T19:39:07.564Z,6.47
2023-03-05T19:41:34.865Z,6.30
2023-03-05T19:44:04.879Z,6.77
2023-03-05T19:46:32.043Z,6.20
2023-03-05T19:48:59.104Z,6.30
2023-03-05T19:51:26.625Z,6.10
2023-03-05T19:53:57.445Z,5.57
2023-03-05T19:56:29.706Z,6.90
2023-03-05T19:59:08.834Z,6.83
2023-03-05T20:01:36.776Z,6.17
2023-03-05T20:04:05.231Z,5.60
2023-03-05T20:06:33.037Z,5.67
2023-03-05T20:09:04.323Z,6.33
2023-03-05T20:11:32.847Z,5.90
2023-03-05T20:14:00.230Z,5.80
2023-03-05T20:16:31.629Z,5.90
2023-03-05T20:19:03.437Z,5.40
2023-03-05T20:21:38.868Z,7.37
2023-03-05T20:24:34.151Z,5.97
2023-03-05T20:27:17.712Z,6.27
2023-03-05T20:29:57.908Z,6.20
2023-03-05T20:32:26.490Z,6.97
2023-03-05T20:34:53.224Z,5.40
2023-03-05T20:38:25.858Z,8.13
2023-03-05T20:40:55.692Z,9.23
2023-03-05T20:43:27.303Z,7.97
2023-03-05T20:45:58.047Z,6.60
2023-03-05T20:48:26.665Z,6.60
2023-03-05T20:50:55.093Z,6.10
2023-03-05T20:53:23.911Z,6.67
2023-03-05T20:55:56.794Z,6.43
2023-03-05T20:58:24.918Z,6.47
2023-03-05T21:00:53.221Z,6.87
2023-03-05T21:03:25.562Z,6.50
2023-03-05T21:05:58.357Z,7.47
2023-03-05T21:08:27.238Z,6.63
2023-03-05T21:10:54.048Z,7.47
2023-03-05T21:13:21.128Z,6.20
2023-03-05T21:15:47.872Z,6.70
2023-03-05T21:18:14.592Z,7.07
2023-03-05T21:20:41.291Z,7.23
2023-03-05T21:23:08.087Z,7.23
2023-03-05T21:25:35.147Z,8.00
2023-03-05T21:28:14.686Z,7.47
2023-03-05T21:30:45.315Z,7.40
2023-03-05T21:33:18.425Z,7.20
2023-03-05T21:35:49.296Z,6.90
2023-03-05T21:38:16.190Z,7.30
2023-03-05T21:40:49.160Z,7.70
2023-03-05T21:43:21.212Z,7.03
2023-03-05T21:45:48.953Z,7.17
2023-03-05T21:48:16.448Z,6.93
2023-03-05T21:50:44.620Z,7.60
2023-03-05T21:53:12.936Z,7.43
2023-03-05T21:56:28.322Z,7.67
2023-03-05T21:58:55.541Z,7.67
2023-03-05T22:01:22.410Z,7.40
2023-03-05T22:03:49.739Z,8.13
2023-03-05T22:06:21.001Z,7.77
2023-03-05T22:08:48.420Z,7.77
2023-03-05T22:11:17.442Z,7.63
2023-03-05T22:13:46.359Z,7.40
2023-03-05T22:16:24.436Z,8.10
2023-03-05T22:18:56.397Z,7.83
2023-03-05T22:21:28.046Z,7.30
2023-03-05T22:23:57.188Z,9.03
2023-03-05T22:26:35.535Z,9.20
2023-03-05T22:29:02.896Z,8.90
2023-03-05T22:31:30.815Z,8.90
2023-03-05T22:34:00.862Z,9.30
2023-03-05T22:36:27.895Z,8.73
2023-03-05T22:38:58.054Z,9.13
2023-03-05T22:41:24.755Z,10.00
2023-03-05T22:43:52.330Z,9.73
2023-03-05T22:46:24.565Z,9.67
2023-03-05T22:48:52.222Z,9.73
2023-03-05T22:51:19.850Z,10.50
2023-03-05T22:53:47.159Z,10.20
2023-03-05T22:56:16.627Z,10.83
2023-03-05T22:58:43.351Z,11.13
2023-03-05T23:01:17.069Z,10.40
2023-03-05T23:04:27.048Z,11.47
2023-03-05T23:07:20.700Z,10.80
2023-03-05T23:10:02.069Z,11.97
2023-03-05T23:12:30.252Z,12.40
2023-03-05T23:15:00.405Z,12.90
2023-03-05T23:17:27.425Z,12.47
2023-03-05T23:19:54.089Z,12.27
2023-03-05T23:22:21.290Z,13.07
2023-03-05T23:24:48.077Z,13.80
2023-03-05T23:27:16.196Z,13.43
2023-03-05T23:30:19.958Z,12.77
2023-03-05T23:32:49.902Z,12.23
2023-03-05T23:35:25.160Z,14.00
2023-03-05T23:37:53.484Z,13.87
2023-03-05T23:40:22.658Z,14.13
2023-03-05T23:42:50.070Z,12.77
2023-03-05T23:45:18.024Z,12.67
2023-03-05T23:47:46.134Z,14.07
2023-03-05T23:50:15.935Z,14.30
2023-03-05T23:52:43.767Z,14.47
2023-03-05T23:55:15.902Z,14.17
2023-03-05T23:57:43.425Z,13.70
